createdAt,value
2019-05-06T00:02:51.450Z,99.90
2019-05-06T00:07:59.175Z,99.90
2019-05-06T00:13:06.934Z,99.90
2019-05-06T00:18:14.644Z,99.90
2019-05-06T00:23:27.446Z,99.90
2019-05-06T00:28:40.532Z,99.90
2019-05-06T00:33:48.350Z,99.90
2019-05-06T00:38:58.882Z,99.90
2019-05-06T00:44:06.593Z,99.90
2019-05-06T00:49:14.512Z,99.90
2019-05-06T00:54:24.820Z,99.90
2019-05-06T00:59:34.539Z,99.90
2019-05-06T01:04:44.485Z,99.90
2019-05-06T01:09:54.009Z,99.90
2019-05-06T01:15:03.735Z,99.90
2019-05-06T01:20:11.190Z,99.90
2019-05-06T01:25:18.527Z,99.90
2019-05-06T01:30:26.463Z,99.90
2019-05-06T01:35:35.246Z,99.90
2019-05-06T01:40:54.669Z,99.90
2019-05-06T01:46:04.585Z,99.90
2019-05-06T01:51:11.755Z,99.90
2019-05-06T01:56:19.619Z,99.90
2019-05-06T02:01:28.250Z,99.90
2019-05-06T02:06:35.637Z,99.90
2019-05-06T02:11:44.438Z,99.90
2019-05-06T02:16:54.331Z,99.90
2019-05-06T02:22:28.848Z,99.90
2019-05-06T02:27:36.122Z,99.90
2019-05-06T02:32:51.422Z,99.90
2019-05-06T02:37:58.842Z,99.90
2019-05-06T02:43:06.277Z,99.90
2019-05-06T02:48:23.379Z,99.90
2019-05-06T02:53:33.149Z,99.90
2019-05-06T02:58:39.704Z,99.90
2019-05-06T03:03:47.175Z,99.90
2019-05-06T03:08:54.576Z,99.90
2019-05-06T03:14:03.287Z,99.90
2019-05-06T03:19:13.274Z,99.90
2019-05-06T03:24:37.314Z,99.90
2019-05-06T03:29:45.008Z,99.90
2019-05-06T03:35:14.865Z,99.90
2019-05-06T03:40:02.998Z,99.90
2019-05-06T03:45:23.676Z,99.90
2019-05-06T03:50:33.607Z,99.90
2019-05-06T03:55:46.558Z,99.90
2019-05-06T04:00:53.200Z,99.90
2019-05-06T04:06:04.517Z,99.90
2019-05-06T04:11:15.833Z,99.90
2019-05-06T04:16:44.138Z,99.90
2019-05-06T04:22:14.041Z,99.90
2019-05-06T04:27:44.909Z,99.90
2019-05-06T04:32:53.613Z,99.90
2019-05-06T04:38:03.157Z,99.90
2019-05-06T04:43:13.363Z,99.90
2019-05-06T04:48:23.479Z,99.90
2019-05-06T04:53:33.461Z,99.90
2019-05-06T04:58:39.435Z,99.90
2019-05-06T05:03:47.170Z,99.90
2019-05-06T05:08:55.706Z,99.90
2019-05-06T05:14:13.519Z,99.90
2019-05-06T05:19:23.074Z,99.90
2019-05-06T05:24:31.698Z,99.90
2019-05-06T05:29:39.137Z,99.90
2019-05-06T05:34:46.535Z,99.90
2019-05-06T05:39:53.869Z,99.90
2019-05-06T05:45:02.697Z,99.90
2019-05-06T05:50:19.543Z,99.90
2019-05-06T05:55:27.258Z,99.90
2019-05-06T06:00:36.104Z,99.90
2019-05-06T06:05:43.708Z,99.90
2019-05-06T06:10:59.645Z,99.90
2019-05-06T06:16:43.846Z,99.90
2019-05-06T06:21:59.135Z,99.90
2019-05-06T06:27:06.503Z,99.90
2019-05-06T06:32:19.645Z,99.90
2019-05-06T06:37:44.209Z,99.90
2019-05-06T06:42:55.204Z,99.90
2019-05-06T06:48:03.088Z,99.90
2019-05-06T06:53:12.294Z,99.90
2019-05-06T06:58:35.755Z,99.90
2019-05-06T07:03:52.659Z,99.90
2019-05-06T07:08:59.372Z,99.60
2019-05-06T07:14:06.839Z,99.30
2019-05-06T07:19:17.961Z,98.60
2019-05-06T07:24:26.316Z,98.20
2019-05-06T07:29:33.699Z,97.40
2019-05-06T07:34:42.061Z,98.40
2019-05-06T07:39:49.509Z,98.60
2019-05-06T07:45:22.024Z,97.30
2019-05-06T07:50:29.425Z,95.80
2019-05-06T07:55:37.887Z,95.10
2019-05-06T08:00:45.168Z,94.80
2019-05-06T08:05:58.287Z,94.60
2019-05-06T08:11:02.709Z,94.30
2019-05-06T08:16:12.895Z,94.50
2019-05-06T08:21:23.085Z,92.60
2019-05-06T08:26:32.314Z,91.20
2019-05-06T08:31:39.519Z,91.60
2019-05-06T08:37:12.097Z,90.20
2019-05-06T08:42:22.424Z,90.60
2019-05-06T08:47:30.050Z,89.20
2019-05-06T08:53:13.879Z,88.80
2019-05-06T08:58:22.247Z,81.00
2019-05-06T09:03:29.517Z,82.70
2019-05-06T09:08:36.831Z,86.30
2019-05-06T09:13:44.164Z,90.20
2019-05-06T09:18:53.363Z,88.80
2019-05-06T09:24:02.256Z,90.50
2019-05-06T09:29:16.856Z,90.90
2019-05-06T09:34:33.432Z,91.60
2019-05-06T09:39:43.044Z,92.00
2019-05-06T09:44:50.803Z,90.30
2019-05-06T09:49:59.059Z,91.90
2019-05-06T09:55:16.847Z,91.10
2019-05-06T10:00:24.581Z,89.00
2019-05-06T10:05:31.876Z,85.60
2019-05-06T10:10:53.690Z,79.40
2019-05-06T10:15:49.499Z,78.80
2019-05-06T10:20:56.909Z,78.30
2019-05-06T10:26:04.809Z,77.70
2019-05-06T10:31:14.404Z,81.90
2019-05-06T10:36:22.703Z,87.20
2019-05-06T10:41:35.731Z,90.10
2019-05-06T10:46:43.162Z,90.30
2019-05-06T10:52:07.301Z,91.80
2019-05-06T10:57:26.619Z,93.90
2019-05-06T11:02:58.830Z,93.40
2019-05-06T11:08:06.127Z,92.60
2019-05-06T11:13:13.723Z,91.20
2019-05-06T11:18:23.435Z,79.20
2019-05-06T11:23:30.143Z,56.30
2019-05-06T11:28:52.133Z,47.70
2019-05-06T11:34:33.635Z,57.80
2019-05-06T11:39:43.041Z,76.90
2019-05-06T11:44:52.863Z,87.90
2019-05-06T11:49:59.616Z,82.00
2019-05-06T11:55:07.816Z,79.90
2019-05-06T12:00:19.192Z,82.90
2019-05-06T12:05:26.455Z,76.50
2019-05-06T12:10:33.644Z,76.80
2019-05-06T12:15:41.973Z,69.60
2019-05-06T12:20:49.332Z,52.60
2019-05-06T12:25:56.853Z,49.10
2019-05-06T12:31:04.494Z,42.40
2019-05-06T12:36:20.800Z,47.80
2019-05-06T12:41:28.210Z,52.50
2019-05-06T12:46:48.515Z,59.90
2019-05-06T12:51:56.057Z,61.40
2019-05-06T12:57:03.646Z,61.50
2019-05-06T13:02:13.240Z,57.80
2019-05-06T13:07:38.669Z,56.10
2019-05-06T13:12:48.002Z,56.00
2019-05-06T13:17:55.638Z,61.40
2019-05-06T13:23:13.703Z,61.60
2019-05-06T13:28:19.280Z,59.70
2019-05-06T13:33:34.418Z,61.10
2019-05-06T13:38:42.683Z,63.50
2019-05-06T13:44:05.670Z,66.60
2019-05-06T13:49:38.169Z,64.00
2019-05-06T13:54:45.507Z,58.70
2019-05-06T13:59:53.454Z,59.60
2019-05-06T14:05:02.936Z,58.00
2019-05-06T14:10:10.445Z,59.90
2019-05-06T14:15:18.835Z,62.50
2019-05-06T14:20:26.362Z,63.80
2019-05-06T14:26:07.561Z,65.00
2019-05-06T14:31:25.879Z,65.00
2019-05-06T14:36:34.399Z,59.40
2019-05-06T14:41:44.986Z,60.10
2019-05-06T14:47:10.071Z,63.10
2019-05-06T14:52:19.517Z,64.80
2019-05-06T14:57:27.575Z,68.00
2019-05-06T15:02:35.370Z,67.40
2019-05-06T15:07:42.744Z,68.60
2019-05-06T15:12:50.271Z,66.10
2019-05-06T15:17:57.939Z,70.30
2019-05-06T15:23:05.373Z,69.80
2019-05-06T15:28:13.090Z,74.20
2019-05-06T15:33:22.821Z,75.20
2019-05-06T15:38:31.104Z,70.20
2019-05-06T15:43:38.361Z,73.20
2019-05-06T15:48:45.483Z,69.50
2019-05-06T15:53:52.995Z,72.30
2019-05-06T15:59:02.501Z,71.50
2019-05-06T16:04:12.121Z,68.30
2019-05-06T16:09:19.648Z,70.20
2019-05-06T16:14:27.407Z,70.50
2019-05-06T16:19:34.930Z,73.70
2019-05-06T16:24:53.551Z,70.80
2019-05-06T16:30:03.450Z,72.60
2019-05-06T16:35:14.281Z,76.70
2019-05-06T16:40:23.332Z,78.50
2019-05-06T16:45:30.632Z,77.20
2019-05-06T16:50:39.079Z,78.00
2019-05-06T16:56:15.466Z,74.10
2019-05-06T17:01:22.919Z,73.80
2019-05-06T17:06:36.449Z,75.60
2019-05-06T17:11:43.850Z,76.30
2019-05-06T17:16:52.722Z,79.70
2019-05-06T17:22:00.333Z,79.40
2019-05-06T17:27:09.209Z,84.40
2019-05-06T17:32:29.838Z,88.80
2019-05-06T17:37:54.909Z,90.20
2019-05-06T17:43:02.684Z,91.80
2019-05-06T17:48:16.869Z,92.90
2019-05-06T17:53:25.397Z,91.90
2019-05-06T17:58:33.536Z,93.00
2019-05-06T18:03:40.991Z,93.50
2019-05-06T18:08:48.311Z,94.40
2019-05-06T18:13:56.531Z,93.50
2019-05-06T18:19:03.788Z,94.70
2019-05-06T18:24:12.878Z,95.40
2019-05-06T18:29:22.148Z,96.20
2019-05-06T18:34:29.115Z,96.30
2019-05-06T18:39:36.515Z,97.10
2019-05-06T18:44:43.933Z,97.60
2019-05-06T18:49:52.355Z,98.20
2019-05-06T18:54:59.947Z,98.40
2019-05-06T19:00:08.073Z,98.60
2019-05-06T19:05:24.964Z,98.90
2019-05-06T19:10:33.245Z,99.30
2019-05-06T19:15:40.331Z,99.60
2019-05-06T19:20:48.718Z,99.60
2019-05-06T19:25:55.974Z,99.90
2019-05-06T19:31:03.294Z,99.90
2019-05-06T19:36:12.579Z,99.90
2019-05-06T19:41:19.771Z,99.90
2019-05-06T19:46:27.078Z,99.90
2019-05-06T19:51:34.513Z,99.90
2019-05-06T19:56:42.268Z,99.90
2019-05-06T20:01:49.917Z,99.90
2019-05-06T20:07:03.809Z,99.90
2019-05-06T20:12:16.986Z,99.90
2019-05-06T20:17:24.440Z,99.90
2019-05-06T20:22:32.607Z,99.90
2019-05-06T20:27:42.002Z,99.90
2019-05-06T20:32:51.987Z,99.90
2019-05-06T20:38:00.029Z,99.90
2019-05-06T20:43:17.451Z,99.90
2019-05-06T20:48:16.619Z,99.90
2019-05-06T20:53:23.934Z,99.90
2019-05-06T20:58:31.301Z,99.90
2019-05-06T21:03:38.555Z,99.90
2019-05-06T21:08:45.886Z,99.90
2019-05-06T21:13:53.181Z,99.90
2019-05-06T21:19:02.890Z,99.90
2019-05-06T21:24:09.397Z,99.90
2019-05-06T21:29:16.637Z,99.90
2019-05-06T21:34:23.942Z,99.90
2019-05-06T21:39:32.763Z,99.90
2019-05-06T21:44:40.348Z,99.90
2019-05-06T21:49:47.684Z,99.90
2019-05-06T21:54:54.964Z,99.90
2019-05-06T22:00:03.463Z,99.90
2019-05-06T22:05:13.456Z,99.90
2019-05-06T22:10:22.773Z,99.90
2019-05-06T22:15:32.288Z,99.90
2019-05-06T22:20:57.691Z,99.90
2019-05-06T22:26:13.031Z,99.90
2019-05-06T22:31:14.068Z,99.90
2019-05-06T22:36:22.641Z,99.90
2019-05-06T22:41:32.412Z,99.90
2019-05-06T22:46:39.427Z,99.90
2019-05-06T22:51:46.797Z,99.90
2019-05-06T22:56:54.589Z,99.90
2019-05-06T23:02:36.270Z,99.90
2019-05-06T23:07:43.574Z,99.90
2019-05-06T23:12:52.320Z,99.90
2019-05-06T23:18:01.861Z,99.90
2019-05-06T23:23:08.844Z,99.90
2019-05-06T23:28:16.235Z,99.90
2019-05-06T23:33:23.591Z,99.90
2019-05-06T23:39:24.805Z,99.90
2019-05-06T23:45:25.971Z,99.90
2019-05-06T23:51:26.930Z,99.90
2019-05-06T23:56:44.077Z,99.90
